Friedrich Simon

Olheiro - Borussia Mönchengladbach
3 Dez 2028
Domingo
Processo

Personalidade

Adaptabilidade (2) Ambição (1) Controvérsia (6) Lealdade (4) Pressão (11) Profissionalismo (9) Espírito Esportivo (7) Temperamento (18)

Perfil

Estilo de Treinamento Democrático
Licença Nacional B
Determinação 12
Gestão de Pessoas 5
Motivação 9
Disciplina 14
Satisfação no Trabalho
100%
Fadiga
0%
Função Olheiro
Salário 83.0K p/s
Contrato 14.03.2030

Desempenho

Comportamento Bom
Eficácia do Treinamento
44%
Desenvolvimento do Jogador
25%
Prevenção de Lesões
25%
Implementação Tática
70%

Eventos Recentes

Participou de uma reunião de recrutamento agora
Participou de uma reunião de recrutamento agora
Participou de uma reunião de recrutamento 7d atrás
Participou de uma reunião de recrutamento 7d atrás
Observou uma partida 7d atrás
Observou uma partida 7d atrás
Observou uma partida 14d atrás
Observou uma partida 14d atrás

Monitorando agora

175
Jogador Clube Status Habilidade Confiança Observado Última observação Último voto
Peyton Miller New England Revolution Ativo 120 / 118 40% 1 15.08.2028 -
Federico Matarán Giana Erminio Ativo 115 / 117 40% 1 15.08.2028 -
Fernando St. Pauli Perdido 122 / 120 65% 1 07.08.2028 -
Mateus Mané Burnley Ativo 140 / 154 40% 1 07.08.2028 -
Tyler Fletcher Rotherham United Ativo 117 / 125 40% 1 07.08.2028 -
Jorge Salinas Racing Santander Ativo 128 / 140 40% 1 07.08.2028 -
Christian Pulisic AC Milan Ativo 167 / 167 40% 2 31.07.2028 -
Leo Castledine Middlesbrough Ativo 142 / 141 40% 1 31.07.2028 -
Kamaldeen Atiemo Wa All Stars Ativo 114 / 111 40% 1 24.07.2028 -
Christopher Nkunku AC Milan Ativo 170 / 162 40% 4 19.07.2028 -
Callum O'Hare Sheffield United Perdido 139 / 138 40% 1 19.07.2028 -
Iliman N'Diaye Everton Ativo 169 / 162 40% 2 18.07.2028 -
William Osula Wrexham Ativo 146 / 141 40% 1 18.07.2028 -
Héctor Fort Real Sociedad Ativo 141 / 146 40% 2 10.07.2028 -
Hugo Camberos Dorados Negociando 142 / 140 40% 1 10.07.2028 -
Ben Broggio Mansfield Town Ativo 105 / 117 40% 1 10.07.2028 -
Ez Abde Betis Ativo 167 / 157 40% 2 06.07.2028 -
Yassir Zabiri Stade Rennais Perdido 153 / 145 40% 1 06.07.2028 -
Isaac Romero Sevilla Ativo 146 / 148 40% 2 05.07.2028 -
Thiago Brentford Ativo 153 / 154 40% 1 04.07.2028 -
Jonathan Dubasin Osasuna Ativo 158 / 151 40% 3 03.07.2028 -
Aarón Ochoa Málaga Perdido 130 / 125 40% 1 03.07.2028 -
Endrick Boca Juniors Ativo 170 / 161 40% 1 03.07.2028 -
Arnaud Kalimuendo Nottingham Forest Ativo 153 / 150 40% 1 30.06.2028 -
Ismaïla Sarr Crystal Palace Ativo 154 / 152 40% 1 30.06.2028 -
Chupete Málaga Ativo 139 / 138 40% 2 26.06.2028 -
Shea Lacey Crystal Palace Ativo 140 / 140 40% 1 20.06.2028 -
Ryan McAidoo Oldham Athletic Ativo 128 / 128 40% 1 20.06.2028 -
Josh Nichols Oldham Athletic Ativo 116 / 129 40% 1 20.06.2028 -
Vitor Roque TSG Hoffenheim Relatório pronto 159 / 156 65% 1 12.06.2028 -
Jorthy Mokio ADO Den Haag Ativo 141 / 137 40% 1 12.06.2028 -
Andrija Bulatović Chamois Niortais Negociando 122 / 133 40% 1 12.06.2028 -
Jonás Luna Wanderers Ativo 119 / 124 40% 6 29.12.2027 -
Victor Lind Hammarby Ativo 128 / 127 40% 4 29.12.2027 -
Telasco Segovia Inter Miami CF Ativo 143 / 136 40% 6 24.12.2027 -
Juan Cruz de los Santos Nacional Ativo 133 / 131 40% 2 24.12.2027 -
Agustín Ojeda Seattle Sounders Ativo 113 / 128 40% 3 24.12.2027 -
Victor Hernandez Santa Fe Ativo 114 / 126 40% 5 21.12.2027 -
Amin Boudri Los Angeles Football Club Ativo 120 / 128 40% 7 21.12.2027 -
Kevin Fulham Ativo 155 / 155 40% 5 19.12.2027 -
Sota Kitano Red Bull Salzburg Ativo 133 / 128 40% 3 19.12.2027 -
Xavi Simons Tottenham Ativo 158 / 160 40% 3 18.12.2027 -
Gizo Mamageishvili Sturm Graz Ativo 131 / 125 40% 1 18.12.2027 -
Quinn Sullivan Philadelphia Union Ativo 137 / 130 40% 5 17.12.2027 -
Lucas Assadi AIK Ativo 132 / 129 40% 2 17.12.2027 -
Gustavo Neves Bragantino Ativo 118 / 127 40% 1 17.12.2027 -
Camilo Martinez Cortulua Ativo 131 / 124 40% 5 15.12.2027 -
Paxten Aaronson Colorado Rapids Ativo 126 / 141 40% 7 15.12.2027 -
Daniel Karlsbakk Sarpsborg 08 Ativo 123 / 128 40% 4 15.12.2027 -
Malick Fofana Sunderland Ativo 156 / 153 40% 2 12.12.2027 -
Josen Escobar Patriotas Ativo 124 / 124 40% 3 12.12.2027 -
Iñaki Larthirigoyen San Telmo Ativo 112 / 125 40% 3 11.12.2027 -
Diego Luna Real Salt Lake Ativo 121 / 134 40% 5 08.12.2027 -
Samuel Velásquez Atletico Nacional Ativo 117 / 126 40% 4 08.12.2027 -
Santiago González Tigre Ativo 138 / 127 40% 1 28.11.2027 -
Juan Velázquez Belgrano Ativo 124 / 125 40% 1 22.11.2027 -
Kelvin Flórez Deportes Tolima Ativo 106 / 120 40% 4 13.11.2027 -
Alvyn Sanches Young Boys Ativo 135 / 141 40% 1 12.11.2027 -
Joaquín Gho Argentinos Juniors Ativo 140 / 129 40% 3 05.11.2027 -
Alex Luna Instituto Ativo 129 / 130 40% 3 30.10.2027 -
Jeremías Merlo Gimnasia La Plata Ativo 135 / 121 40% 1 29.10.2027 -
Ramiro Peralta Juventud Ativo 120 / 123 40% 1 27.10.2027 -
Joel Mvuka Bodo/Glimt Ativo 119 / 124 40% 1 27.10.2027 -
Tobias Gulliksen Rapid Wien Ativo 133 / 130 40% 1 24.10.2027 -
Bénie Traoré New York City Ativo 134 / 128 40% 2 12.10.2027 -
Maximiliano Gutiérrez Huachipato Ativo 127 / 122 40% 2 12.10.2027 -
Mayckel Lahdo Malmo FF Ativo 141 / 135 40% 1 07.10.2027 -
Santiago Toloza O'Higgins Ativo 116 / 122 40% 2 05.10.2027 -
Ariel Gamarra Cerro Porteno Ativo 116 / 118 40% 1 20.09.2027 -
Riku Yamane Yokohama F. Marinos Ativo 135 / 136 40% 1 18.09.2027 -
Andrés Gómez Vasco da Gama Ativo 126 / 138 40% 1 12.09.2027 -
Kenji Cabrera Vancouver Whitecaps Ativo 123 / 121 40% 1 08.09.2027 -
Patricio Moyano Defensores Ativo 109 / 122 40% 1 06.09.2027 -
Can Uzun Eintracht Frankfurt Ativo 134 / 146 58% 1 14.06.2027 -
Marvin Pieringer Heidenheim Ativo 120 / 131 58% 1 03.06.2027 -
Amadou Onana Aston Villa Ativo 162 / 157 40% 3 30.05.2027 -
Maximilian Beier Borussia Dortmund Ativo 147 / 150 40% 4 30.05.2027 -
Omar El Hilali Espanyol Ativo 153 / 150 40% 6 30.05.2027 -
Mario Soriano Deportivo La Coruña Ativo 133 / 130 40% 1 30.05.2027 -
Nicolas Jackson Aston Villa Ativo 151 / 145 40% 3 28.05.2027 -
Moisés Caicedo Chelsea Ativo 162 / 167 40% 7 27.05.2027 -
Lucien Agoumé Sevilla Ativo 143 / 141 40% 2 27.05.2027 -
Kwadwo Baah Watford Ativo 137 / 131 40% 1 27.05.2027 -
Alberto Moleiro Villarreal Ativo 157 / 154 40% 1 27.05.2027 -
Welington Southampton Ativo 124 / 132 40% 2 25.05.2027 -
Boubacar Kamara Aston Villa Ativo 164 / 166 40% 3 21.05.2027 -
Mats Wieffer Brighton Ativo 149 / 147 40% 1 21.05.2027 -
Carlos Romero Villarreal Ativo 143 / 150 40% 3 20.05.2027 -
Fran García Betis Ativo 150 / 146 40% 2 19.05.2027 -
Yeremy Pino Crystal Palace Ativo 156 / 151 40% 2 18.05.2027 -
Jesús Areso Athletic Bilbao Ativo 143 / 143 40% 4 17.05.2027 -
Felix Nmecha Borussia Dortmund Ativo 162 / 162 40% 5 15.05.2027 -
Manu Koné AS Roma Ativo 161 / 161 40% 5 15.05.2027 -
Gaspar Gijón Ativo 143 / 136 40% 2 12.05.2027 -
Joe Gelhardt Hull City Ativo 139 / 131 40% 3 12.05.2027 -
Marc Pubill Atlético Madrid Ativo 150 / 149 40% 2 11.05.2027 -
Georges Mikautadze Villarreal Ativo 147 / 150 40% 1 11.05.2027 -
Raúl Moro Osasuna Ativo 136 / 143 40% 1 11.05.2027 -
Aimar Osasuna Ativo 143 / 149 40% 3 09.05.2027 -
Adam Hložek TSG Hoffenheim Ativo 145 / 134 40% 6 08.05.2027 -
Andrés Martín Racing Santander Ativo 128 / 131 40% 6 08.05.2027 -
Andre Brooks Sheffield United Ativo 122 / 131 40% 1 08.05.2027 -
Johnny Cardoso Atlético Madrid Ativo 157 / 156 40% 2 07.05.2027 -
Brooke Norton-Cuffy Hull City Ativo 130 / 136 40% 2 07.05.2027 -
Arnau Martínez Valencia Ativo 147 / 145 40% 2 05.05.2027 -
Giannis Konstantelias Borussia Dortmund Ativo 137 / 147 40% 1 05.05.2027 Mais informações
Bilal El Khannouss VfB Stuttgart Ativo 141 / 150 40% 1 04.05.2027 -
Max Johnston Derby County Ativo 134 / 130 40% 1 04.05.2027 -
Sergio Gómez Real Sociedad Ativo 153 / 144 40% 3 02.05.2027 -
Juanlu Bournemouth Ativo 148 / 152 40% 2 02.05.2027 -
Mikel Jauregizar Athletic Bilbao Ativo 158 / 160 40% 6 28.04.2027 -
Takefusa Kubo VfB Stuttgart Ativo 166 / 151 40% 2 26.04.2027 -
Pablo Torre Mallorca Ativo 155 / 146 40% 4 25.04.2027 -
Álex Baena Atlético Madrid Ativo 163 / 163 40% 5 24.04.2027 -
Josha Vagnoman VfB Stuttgart Ativo 144 / 134 40% 5 23.04.2027 -
Tino Livramento Newcastle United Ativo 152 / 158 40% 3 16.04.2027 -
Maxence Lacroix Chelsea Ativo 158 / 151 40% 2 15.04.2027 -
Lilian Brassier Eintracht Frankfurt Ativo 145 / 140 40% 1 15.04.2027 -
Miguel Figueiredo Benfica Ativo 110 / 119 40% 1 13.04.2027 -
Izan Merino Málaga Ativo 127 / 130 40% 1 13.04.2027 -
Chemsdine Talbi Sunderland Ativo 146 / 147 40% 2 10.04.2027 -
Carlos Álvarez Club America Ativo 152 / 143 40% 2 10.04.2027 -
Pedro Porro Tottenham Ativo 151 / 146 40% 2 10.04.2027 -
Jacob Greaves Ipswich Town Ativo 132 / 137 40% 3 07.04.2027 -
Alex Scott Bournemouth Ativo 152 / 152 40% 1 06.04.2027 -
Angelo Stiller VfB Stuttgart Ativo 159 / 152 40% 1 05.04.2027 -
James Dornelly Peterborough United Ativo 106 / 107 40% 2 04.04.2027 -
Kazunari Kita Real Sociedad Ativo 93 / 104 40% 1 04.04.2027 -
Manor Solomon West Ham United Ativo 137 / 140 40% 1 30.03.2027 -
Jesús Vázquez Valencia Ativo 142 / 135 40% 1 28.03.2027 -
Curtis Jones Inter Ativo 165 / 157 40% 2 26.03.2027 -
André Wolverhampton Ativo 147 / 143 40% 1 26.03.2027 -
Fábio Silva Borussia Dortmund Ativo 136 / 144 40% 1 25.03.2027 -
Jarrad Branthwaite Everton Ativo 155 / 154 40% 1 22.03.2027 -
Lewis Hall Newcastle United Ativo 155 / 150 40% 1 21.03.2027 -
Tyrell Malacia Heidenheim Ativo 146 / 137 40% 1 20.03.2027 -
Cristian Uribe Monaco Ativo 151 / 153 40% 1 20.03.2027 -
Florentino Luís Ipswich Town Ativo 146 / 138 40% 1 19.03.2027 -
Víctor Guzmán Monterrey Ativo 122 / 133 40% 1 16.03.2027 -
Roberto Fernández Braga Ativo 144 / 142 40% 6 13.03.2027 -
Urko González Espanyol Ativo 137 / 141 40% 1 13.03.2027 -
Nico O'Reilly Manchester City Ativo 151 / 155 40% 1 13.03.2027 -
Luciano Valente Feyenoord Ativo 152 / 143 40% 1 12.03.2027 -
Yusi Alavés Ativo 136 / 131 40% 1 06.03.2027 -
Óscar Mingueza Crystal Palace Ativo 140 / 149 40% 1 03.03.2027 -
Pablo Barrios Atlético Madrid Ativo 153 / 158 40% 2 02.03.2027 -
Ilaix Moriba Celta Ativo 142 / 148 40% 1 02.03.2027 -
Georginio Rutter Brighton Ativo 155 / 149 40% 2 27.02.2027 -
Geny Sporting CP Ativo 141 / 141 40% 2 19.02.2027 -
Marcelo Allende Mamelodi Sundowns Ativo 128 / 131 40% 3 18.02.2027 -
Antony Betis Ativo 151 / 153 40% 1 16.02.2027 -
Loïc Badé Bayer Leverkusen Ativo 148 / 154 40% 1 23.01.2027 -
José Ángel Carmona Sevilla Ativo 146 / 149 40% 1 20.01.2027 -
Gabriel Brazão Santos Ativo 122 / 135 40% 1 31.12.2026 -
Robin Roefs Sunderland Ativo 147 / 147 40% 1 29.12.2026 -
Joseph Leclercq Tottenham Ativo 153 / 148 40% 2 25.12.2026 -
Marvin Keller Chelsea Ativo 138 / 138 40% 3 20.12.2026 -
Savinho Tottenham Ativo 153 / 157 40% 1 18.12.2026 -
Yehvann Diouf OGC Nice Ativo 134 / 140 40% 1 18.12.2026 -
Igor Nikić Mirandés Ativo 116 / 116 40% 1 16.12.2026 -
Radek Vítek Middlesbrough Ativo 141 / 138 40% 1 13.12.2026 -
Justin Hammel Grasshopper Ativo 124 / 122 40% 3 07.12.2026 -
James Trafford Leeds United Ativo 141 / 144 40% 3 05.12.2026 -
Aitor Fraga Real Sociedad Ativo 120 / 129 40% 1 02.12.2026 -
Ben Voll St. Pauli Ativo 129 / 120 40% 1 30.11.2026 -
Josh Keeley Luton Town Ativo 122 / 125 40% 1 21.11.2026 -
João Pedro Chelsea Ativo 142 / 152 40% 2 20.11.2026 -
Karl Hein Werder Bremen Ativo 146 / 134 40% 2 15.11.2026 -
Niklas Hedl Rapid Wien Ativo 133 / 122 40% 2 13.11.2026 -
Grégoire Coudert Burnley Ativo 119 / 127 40% 1 12.11.2026 -
Cody Gakpo Liverpool Ativo 150 / 154 40% 1 09.11.2026 -
Hugo Souza Corinthians Ativo 145 / 134 40% 1 06.11.2026 -
Carlos Forbs Club Brugge Ativo 139 / 134 40% 1 04.11.2026 -
Jadon Sancho Manchester United Ativo 151 / 146 40% 1 13.10.2026 -
Esteban Glellel Quilmes Ativo 108 / 112 40% 1 12.10.2026 -